createdAt,value
2023-04-08T04:02:12.682Z,100.00
2023-04-08T04:04:40.624Z,100.00
2023-04-08T04:07:08.885Z,100.00
2023-04-08T04:09:36.607Z,100.00
2023-04-08T04:12:04.490Z,100.00
2023-04-08T04:14:31.869Z,100.00
2023-04-08T04:16:59.597Z,100.00
2023-04-08T04:19:31.372Z,100.00
2023-04-08T04:21:58.631Z,100.00
2023-04-08T04:24:26.306Z,100.00
2023-04-08T04:26:53.641Z,100.00
2023-04-08T04:29:21.003Z,100.00
2023-04-08T04:31:48.422Z,100.00
2023-04-08T04:34:17.223Z,100.00
2023-04-08T04:36:44.923Z,100.00
2023-04-08T04:39:12.214Z,100.00
2023-04-08T04:41:40.642Z,100.00
2023-04-08T04:44:07.930Z,100.00
2023-04-08T04:46:35.857Z,100.00
2023-04-08T04:49:03.615Z,100.00
2023-04-08T04:51:33.885Z,100.00
2023-04-08T04:54:01.284Z,100.00
2023-04-08T04:56:29.008Z,100.00
2023-04-08T04:58:57.310Z,100.00
2023-04-08T05:01:25.123Z,100.00
2023-04-08T05:03:52.980Z,100.00
2023-04-08T05:06:20.366Z,100.00
2023-04-08T05:08:47.966Z,100.00
2023-04-08T05:11:18.272Z,100.00
2023-04-08T05:13:45.758Z,100.00
2023-04-08T05:16:13.191Z,100.00
2023-04-08T05:18:41.014Z,100.00
2023-04-08T05:21:08.925Z,100.00
2023-04-08T05:23:36.353Z,100.00
2023-04-08T05:26:06.655Z,100.00
2023-04-08T05:28:34.388Z,100.00
2023-04-08T05:31:02.015Z,100.00
2023-04-08T05:33:29.330Z,100.00
2023-04-08T05:35:56.694Z,100.00
2023-04-08T05:38:24.013Z,100.00
2023-04-08T05:40:51.881Z,100.00
2023-04-08T05:43:19.174Z,100.00
2023-04-08T05:45:46.728Z,100.00
2023-04-08T05:48:14.025Z,100.00
2023-04-08T05:50:41.965Z,100.00
2023-04-08T05:53:10.531Z,100.00
2023-04-08T05:55:37.973Z,100.00
2023-04-08T05:58:05.426Z,100.00
2023-04-08T06:00:33.047Z,100.00
2023-04-08T06:03:01.196Z,100.00
2023-04-08T06:05:28.764Z,100.00
2023-04-08T06:07:56.335Z,100.00
2023-04-08T06:10:23.635Z,100.00
2023-04-08T06:12:51.197Z,100.00
2023-04-08T06:15:19.588Z,100.00
2023-04-08T06:17:47.391Z,100.00
2023-04-08T06:20:14.785Z,100.00
2023-04-08T06:22:42.019Z,100.00
2023-04-08T06:25:10.106Z,100.00
2023-04-08T06:27:37.672Z,100.00
2023-04-08T06:30:05.646Z,100.00
2023-04-08T06:32:33.091Z,100.00
2023-04-08T06:35:01.102Z,100.00
2023-04-08T06:37:29.021Z,100.00
2023-04-08T06:39:56.474Z,100.00
2023-04-08T06:42:23.786Z,100.00
2023-04-08T06:45:06.398Z,100.00
2023-04-08T06:47:34.685Z,100.00
2023-04-08T06:50:02.278Z,100.00
2023-04-08T06:52:29.537Z,100.00
2023-04-08T06:54:57.105Z,100.00
2023-04-08T06:57:24.377Z,100.00
2023-04-08T06:59:53.476Z,100.00
2023-04-08T07:02:22.203Z,100.00
2023-04-08T07:04:49.848Z,100.00
2023-04-08T07:07:17.295Z,100.00
2023-04-08T07:09:46.035Z,100.00
2023-04-08T07:12:13.802Z,100.00
2023-04-08T07:14:41.698Z,100.00
2023-04-08T07:17:09.179Z,100.00
2023-04-08T07:19:36.659Z,100.00
2023-04-08T07:22:03.938Z,100.00
2023-04-08T07:24:31.999Z,100.00
2023-04-08T07:26:59.643Z,100.00
2023-04-08T07:29:28.025Z,100.00
2023-04-08T07:31:55.422Z,100.00
2023-04-08T07:34:23.212Z,100.00
2023-04-08T07:36:50.653Z,100.00
2023-04-08T07:39:18.484Z,100.00
2023-04-08T07:41:45.998Z,100.00
2023-04-08T07:44:17.098Z,100.00
2023-04-08T07:46:46.363Z,100.00
2023-04-08T07:49:14.137Z,100.00
2023-04-08T07:51:41.890Z,100.00
2023-04-08T07:54:11.980Z,100.00
2023-04-08T07:56:40.411Z,100.00
2023-04-08T07:59:07.831Z,100.00
2023-04-08T08:01:35.931Z,100.00
2023-04-08T08:04:03.893Z,100.00
2023-04-08T08:06:32.375Z,100.00
2023-04-08T08:09:00.957Z,100.00
2023-04-08T08:11:28.350Z,100.00
2023-04-08T08:13:55.831Z,100.00
2023-04-08T08:16:27.321Z,100.00
2023-04-08T08:18:55.332Z,100.00
2023-04-08T08:21:22.723Z,100.00
2023-04-08T08:23:52.665Z,100.00
2023-04-08T08:26:21.164Z,100.00
2023-04-08T08:28:48.625Z,100.00
2023-04-08T08:31:16.085Z,100.00
2023-04-08T08:33:43.649Z,100.00
2023-04-08T08:36:11.077Z,100.00
2023-04-08T08:38:38.475Z,100.00
2023-04-08T08:41:06.264Z,100.00
2023-04-08T08:43:34.513Z,100.00
2023-04-08T08:46:01.929Z,100.00
2023-04-08T08:48:29.442Z,100.00
2023-04-08T08:50:57.628Z,100.00
2023-04-08T08:53:34.263Z,100.00
2023-04-08T08:58:34.819Z,100.00
2023-04-08T09:01:02.166Z,100.00
2023-04-08T09:03:29.817Z,100.00
2023-04-08T09:05:59.934Z,100.00
2023-04-08T09:08:31.283Z,100.00
2023-04-08T09:11:31.180Z,100.00
2023-04-08T09:13:58.831Z,100.00
2023-04-08T09:16:26.969Z,100.00
2023-04-08T09:18:54.459Z,100.00
2023-04-08T09:21:25.017Z,100.00
2023-04-08T09:23:53.274Z,100.00
2023-04-08T09:26:24.182Z,100.00
2023-04-08T09:29:03.947Z,100.00
2023-04-08T09:31:44.287Z,100.00
2023-04-08T09:34:17.431Z,100.00
2023-04-08T09:36:45.909Z,100.00
2023-04-08T09:39:13.566Z,100.00
2023-04-08T09:41:41.425Z,100.00
2023-04-08T09:44:11.786Z,100.00
2023-04-08T09:46:47.380Z,100.00
2023-04-08T09:49:34.354Z,100.00
2023-04-08T09:52:11.474Z,100.00
2023-04-08T09:54:52.479Z,100.00
2023-04-08T09:57:43.236Z,100.00
2023-04-08T10:00:18.044Z,100.00
2023-04-08T10:03:03.736Z,100.00
2023-04-08T10:05:31.572Z,100.00
2023-04-08T10:07:59.134Z,100.00
2023-04-08T10:10:27.509Z,100.00
2023-04-08T10:12:55.762Z,100.00
2023-04-08T10:15:34.313Z,100.00
2023-04-08T10:18:08.227Z,100.00
2023-04-08T10:20:38.794Z,100.00
2023-04-08T10:23:16.513Z,100.00
2023-04-08T10:25:46.801Z,100.00
2023-04-08T10:28:15.171Z,100.00
2023-04-08T10:30:46.456Z,100.00
2023-04-08T10:33:17.292Z,98.45
2023-04-08T10:35:49.162Z,92.70
2023-04-08T10:38:17.704Z,89.51
2023-04-08T10:40:46.014Z,84.71
2023-04-08T10:43:14.676Z,86.52
2023-04-08T10:45:44.340Z,82.76
2023-04-08T10:48:20.703Z,85.98
2023-04-08T10:50:58.845Z,86.71
2023-04-08T10:53:33.940Z,85.58
2023-04-08T10:56:09.096Z,84.19
2023-04-08T10:58:37.087Z,85.61
2023-04-08T11:01:08.342Z,78.53
2023-04-08T11:03:48.610Z,79.08
2023-04-08T11:06:17.485Z,79.38
2023-04-08T11:08:45.712Z,80.12
2023-04-08T11:11:13.569Z,78.45
2023-04-08T11:13:51.989Z,77.33
2023-04-08T11:16:25.923Z,77.69
2023-04-08T11:18:54.148Z,78.69
2023-04-08T11:21:25.708Z,78.30
2023-04-08T11:23:54.096Z,73.56
2023-04-08T11:26:21.917Z,71.57
2023-04-08T11:28:51.673Z,71.30
2023-04-08T11:31:23.557Z,70.62
2023-04-08T11:33:56.654Z,67.16
2023-04-08T11:36:24.210Z,67.99
2023-04-08T11:38:54.532Z,68.20
2023-04-08T11:41:22.461Z,67.01
2023-04-08T11:43:58.178Z,66.68
2023-04-08T11:46:25.961Z,64.92
2023-04-08T11:49:00.392Z,62.46
2023-04-08T11:51:28.570Z,60.80
2023-04-08T11:53:56.784Z,61.80
2023-04-08T11:56:25.104Z,61.36
2023-04-08T11:58:53.167Z,58.28
2023-04-08T12:01:21.526Z,58.68
2023-04-08T12:04:01.412Z,58.55
2023-04-08T12:06:29.531Z,57.44
2023-04-08T12:08:57.180Z,57.08
2023-04-08T12:11:24.997Z,53.90
2023-04-08T12:13:53.331Z,58.21
2023-04-08T12:16:21.720Z,56.32
2023-04-08T12:18:50.206Z,55.81
2023-04-08T12:21:17.718Z,54.48
2023-04-08T12:23:45.153Z,51.23
2023-04-08T12:26:13.286Z,51.54
2023-04-08T12:28:40.616Z,52.86
2023-04-08T12:31:08.031Z,52.43
2023-04-08T12:33:36.180Z,51.21
2023-04-08T12:36:03.922Z,49.47
2023-04-08T12:38:31.848Z,49.32
2023-04-08T12:40:59.469Z,48.68
2023-04-08T12:43:27.000Z,48.63
2023-04-08T12:45:54.781Z,49.00
2023-04-08T12:48:22.135Z,49.32
2023-04-08T12:50:49.398Z,48.01
2023-04-08T12:53:17.586Z,45.63
2023-04-08T12:55:45.977Z,47.27
2023-04-08T12:58:16.875Z,47.42
2023-04-08T13:00:46.790Z,46.46
2023-04-08T13:03:17.389Z,47.61
2023-04-08T13:05:44.966Z,47.16
2023-04-08T13:08:12.570Z,47.06
2023-04-08T13:10:41.781Z,46.73
2023-04-08T13:13:09.544Z,45.56
2023-04-08T13:15:36.962Z,45.38
2023-04-08T13:18:04.888Z,45.23
2023-04-08T13:20:32.309Z,46.57
2023-04-08T13:23:00.881Z,45.42
2023-04-08T13:25:30.046Z,45.83
2023-04-08T13:27:57.681Z,44.47
2023-04-08T13:30:25.221Z,44.47
2023-04-08T13:32:52.631Z,43.31
2023-04-08T13:35:20.081Z,43.99
2023-04-08T13:37:47.345Z,43.04
2023-04-08T13:40:15.076Z,42.76
2023-04-08T13:42:42.978Z,42.45
2023-04-08T13:45:10.436Z,42.01
2023-04-08T13:47:38.793Z,42.01
2023-04-08T13:50:07.853Z,41.58
2023-04-08T13:52:35.403Z,41.85
2023-04-08T13:55:02.905Z,41.09
2023-04-08T13:57:30.612Z,38.73
2023-04-08T13:59:58.007Z,39.09
2023-04-08T14:02:25.554Z,41.27
2023-04-08T14:04:53.497Z,40.19
2023-04-08T14:07:20.938Z,40.85
2023-04-08T14:09:48.659Z,40.27
2023-04-08T14:12:15.987Z,40.43
2023-04-08T14:14:44.079Z,39.70
2023-04-08T14:17:11.568Z,39.12
2023-04-08T14:19:39.456Z,38.59
2023-04-08T14:22:06.988Z,36.83
2023-04-08T14:24:34.548Z,32.30
2023-04-08T14:27:03.501Z,28.82
2023-04-08T14:29:30.807Z,26.75
2023-04-08T14:31:58.529Z,23.81
2023-04-08T14:34:26.426Z,24.19
2023-04-08T14:36:53.693Z,23.19
2023-04-08T14:39:21.670Z,21.01
2023-04-08T14:41:49.035Z,21.58
2023-04-08T14:44:16.363Z,20.85
2023-04-08T14:46:44.133Z,18.91
2023-04-08T14:49:11.791Z,19.91
2023-04-08T14:51:39.578Z,18.89
2023-04-08T14:54:06.979Z,20.13
2023-04-08T14:56:34.776Z,19.03
2023-04-08T14:59:02.077Z,18.57
2023-04-08T15:01:31.562Z,18.22
2023-04-08T15:03:59.599Z,20.21
2023-04-08T15:06:27.579Z,20.27
2023-04-08T15:08:55.467Z,19.49
2023-04-08T15:11:23.855Z,20.22
2023-04-08T15:13:51.204Z,19.94
2023-04-08T15:16:18.834Z,21.92
2023-04-08T15:18:47.069Z,22.89
2023-04-08T15:21:14.690Z,23.35
2023-04-08T15:23:43.516Z,22.33
2023-04-08T15:26:11.272Z,20.88
2023-04-08T15:28:40.248Z,20.41
2023-04-08T15:31:08.061Z,22.51
2023-04-08T15:33:39.052Z,21.33
2023-04-08T15:36:06.403Z,21.02
2023-04-08T15:38:33.795Z,22.83
2023-04-08T15:41:01.563Z,23.34
2023-04-08T15:43:28.929Z,24.56
2023-04-08T15:45:56.692Z,25.59
2023-04-08T15:48:24.112Z,26.41
2023-04-08T15:50:52.096Z,24.88
2023-04-08T15:53:19.876Z,25.43
2023-04-08T15:55:47.683Z,25.72
2023-04-08T15:58:15.793Z,26.82
2023-04-08T16:00:43.168Z,29.37
2023-04-08T16:03:12.006Z,28.91
2023-04-08T16:05:41.577Z,30.77
2023-04-08T16:08:09.973Z,30.86
2023-04-08T16:10:37.364Z,32.11
2023-04-08T16:13:04.682Z,32.31
2023-04-08T16:15:34.037Z,32.71
2023-04-08T16:18:03.092Z,31.46
2023-04-08T16:20:30.993Z,32.91
2023-04-08T16:22:58.349Z,34.69
2023-04-08T16:25:27.163Z,35.87
2023-04-08T16:27:56.101Z,37.36
2023-04-08T16:30:23.598Z,37.88
2023-04-08T16:32:51.050Z,39.02
2023-04-08T16:35:20.532Z,39.79
2023-04-08T16:37:48.439Z,40.48
2023-04-08T16:40:16.437Z,40.22
2023-04-08T16:42:44.198Z,40.73
2023-04-08T16:45:11.637Z,40.98
2023-04-08T16:47:41.530Z,41.73
2023-04-08T16:50:09.014Z,41.72
2023-04-08T16:52:36.561Z,42.54
2023-04-08T16:55:04.544Z,42.17
2023-04-08T16:57:32.429Z,42.14
2023-04-08T16:59:59.680Z,42.67
2023-04-08T17:02:27.374Z,44.64
2023-04-08T17:04:55.253Z,44.39
2023-04-08T17:07:23.202Z,46.00
2023-04-08T17:09:52.097Z,44.86
2023-04-08T17:12:19.618Z,45.82
2023-04-08T17:14:47.387Z,46.49
2023-04-08T17:17:14.743Z,47.06
2023-04-08T17:19:43.076Z,46.11
2023-04-08T17:22:10.357Z,47.35
2023-04-08T17:24:38.114Z,48.22
2023-04-08T17:27:05.566Z,47.34
2023-04-08T17:29:33.556Z,47.04
2023-04-08T17:32:01.482Z,47.76
2023-04-08T17:34:31.204Z,47.36
2023-04-08T17:36:58.983Z,48.13
2023-04-08T17:39:26.250Z,47.55
2023-04-08T17:41:53.515Z,47.85
2023-04-08T17:44:21.781Z,48.85
2023-04-08T17:46:49.070Z,49.14
2023-04-08T17:49:16.681Z,49.06
2023-04-08T17:51:43.952Z,51.77
2023-04-08T17:54:12.281Z,57.43
2023-04-08T17:56:39.847Z,62.09
2023-04-08T17:59:07.280Z,70.39
2023-04-08T18:01:34.943Z,100.00
2023-04-08T18:04:02.417Z,100.00
2023-04-08T18:06:31.910Z,100.00
2023-04-08T18:08:59.747Z,100.00
2023-04-08T18:11:27.282Z,100.00
2023-04-08T18:13:54.548Z,100.00
2023-04-08T18:16:22.900Z,100.00
2023-04-08T18:18:50.447Z,100.00
2023-04-08T18:21:18.437Z,100.00
2023-04-08T18:23:49.434Z,100.00
2023-04-08T18:26:17.930Z,100.00
2023-04-08T18:28:45.304Z,100.00
2023-04-08T18:31:13.324Z,100.00
2023-04-08T18:33:41.329Z,100.00
2023-04-08T18:36:10.284Z,100.00
2023-04-08T18:38:39.973Z,100.00
2023-04-08T18:41:08.289Z,100.00
2023-04-08T18:43:35.941Z,100.00
2023-04-08T18:46:04.802Z,100.00
2023-04-08T18:48:33.170Z,100.00
2023-04-08T18:51:01.931Z,100.00
2023-04-08T18:53:29.443Z,100.00
2023-04-08T18:55:56.689Z,100.00
2023-04-08T18:58:24.034Z,100.00
2023-04-08T19:00:51.546Z,100.00
2023-04-08T19:03:19.550Z,100.00
2023-04-08T19:05:46.854Z,100.00
2023-04-08T19:08:15.436Z,100.00
2023-04-08T19:10:43.200Z,100.00
2023-04-08T19:13:10.607Z,100.00
2023-04-08T19:15:38.042Z,100.00
2023-04-08T19:18:05.631Z,100.00
2023-04-08T19:20:33.750Z,100.00
2023-04-08T19:23:01.146Z,100.00
2023-04-08T19:25:28.413Z,100.00
2023-04-08T19:27:56.264Z,100.00
2023-04-08T19:30:24.076Z,100.00
2023-04-08T19:32:51.892Z,100.00
2023-04-08T19:35:19.357Z,100.00
2023-04-08T19:37:46.740Z,100.00
2023-04-08T19:40:14.058Z,100.00
2023-04-08T19:42:41.457Z,100.00
2023-04-08T19:45:10.811Z,100.00
2023-04-08T19:47:42.275Z,100.00
2023-04-08T19:50:10.346Z,100.00
2023-04-08T19:52:39.401Z,100.00
2023-04-08T19:55:08.077Z,100.00
2023-04-08T19:57:35.710Z,100.00
2023-04-08T20:00:04.486Z,100.00
2023-04-08T20:02:34.230Z,100.00
2023-04-08T20:05:02.297Z,100.00
2023-04-08T20:07:30.635Z,100.00
2023-04-08T20:09:58.122Z,100.00
2023-04-08T20:12:25.730Z,100.00
2023-04-08T20:14:53.148Z,100.00
2023-04-08T20:17:21.677Z,100.00
2023-04-08T20:19:51.376Z,100.00
2023-04-08T20:22:18.649Z,100.00
2023-04-08T20:24:50.493Z,100.00
2023-04-08T20:27:21.226Z,100.00
2023-04-08T20:29:48.961Z,100.00
2023-04-08T20:32:16.302Z,100.00
2023-04-08T20:34:43.707Z,100.00
2023-04-08T20:37:11.738Z,100.00
2023-04-08T20:39:39.602Z,100.00
2023-04-08T20:42:09.377Z,100.00
2023-04-08T20:44:37.384Z,100.00
2023-04-08T20:47:05.417Z,100.00
2023-04-08T20:49:34.635Z,100.00
2023-04-08T20:52:02.085Z,100.00
2023-04-08T20:54:31.141Z,100.00
2023-04-08T20:56:58.483Z,100.00
2023-04-08T20:59:25.923Z,100.00
2023-04-08T21:01:54.463Z,100.00
2023-04-08T21:04:24.363Z,100.00
2023-04-08T21:06:52.078Z,100.00
2023-04-08T21:09:19.407Z,100.00
2023-04-08T21:11:46.994Z,100.00
2023-04-08T21:14:14.277Z,100.00
2023-04-08T21:16:41.602Z,100.00
2023-04-08T21:19:08.954Z,100.00
2023-04-08T21:21:36.368Z,100.00
2023-04-08T21:24:06.899Z,100.00
2023-04-08T21:26:35.562Z,100.00
2023-04-08T21:29:04.058Z,100.00
2023-04-08T21:31:32.840Z,100.00
2023-04-08T21:34:01.047Z,100.00
2023-04-08T21:36:31.218Z,100.00
2023-04-08T21:38:59.710Z,100.00
2023-04-08T21:41:29.822Z,100.00
